CZEM/ZEM METAR and TAF weather

Enter ICAO airport designator
Station Type Date Time Source
CZEM METAR 2020/06/19 20:00 UTC NOAA

CZEM 192000Z 28004KT 15SM SCT070 BKN080 20/16 A2985 RMK AC4AC1 LAST STFD OBS/NEXT 281400 UTC SLP109 DENSITY ALT 800FT


Station Type Date Time Source
CZEM Decoded METAR 2020/06/19 20:00 UTC NOAA

Eastmain River Airport, Canada (CZEM) 52-14N 078-31W
Jun 19, 2020 - 04:00 PM EDT / 2020.06.19 2000 UTC
Wind: from the W (280 degrees) at 5 MPH (4 KT):0
Visibility: 15 mile(s):0
Sky conditions: mostly cloudy
Temperature: 68 F (20 C)
Dew Point: 60 F (16 C)
Relative Humidity: 77%
Pressure (altimeter): 29.85 in. Hg (1010 hPa)
ob: CZEM 192000Z 28004KT 15SM SCT070 BKN080 20/16 A2985 RMK AC4AC1 LAST STFD OBS/NEXT 281400 UTC SLP109 DENSITY ALT 800FT
cycle: 20

Station Type Date Time Source
CZEM TAF UTC NOAA

Error!

Example: see airport list